Aviation Digital Data Service (ADDS)

Output produced by METARs form (1304 UTC 26 April 2015)
found at http://aviationweather.gov/adds/metars/
 
KLAX 261133Z 2612/2718 VRB05KT P6SM SKC 
     FM261600 25012KT P6SM SKC 
     FM262000 26017G24KT P6SM SCT250 
     FM270300 26009KT P6SM SKC 
     FM270600 VRB05KT P6SM SKC 
     FM271000 04006KT P6SM SKC 
     FM271500 VRB05KT P6SM SKC